CheckWX is a tool to help pilots better visualize weather data.  It is not intended as a substitute for an official pre-flight weather briefing.

00:10:37 UTC

GMFO METAR
Angads Airport
Oujda, Morocco
Current

41 mins ago

GMFO 162330Z 19011KT CAVOK 06/03 Q1020 NOSIG
Observed
Nov-16 @ 23:30 UTC
Wind
  • 190° at 11 KTS
Visibility
10,000+ meters
Flight Rules
VFR
Cloud Levels
  • Clear skies
Temperature
C / 43°F
Dewpoint
C / 37°F
Humidity
81%
Altimeter
30.12" Hg
Pressure
1019.92 hPa
Previous

1 hour ago

GMFO 162300Z 19012KT 9999 NCD 06/03 Q1020 NOSIG
Observed
Nov-16 @ 23:00 UTC
Wind
  • 190° at 12 KTS
Visibility
10,000+ meters
Flight Rules
VFR
Cloud Levels
  • Clear skies
Temperature
C / 43°F
Dewpoint
C / 37°F
Humidity
81%
Altimeter
30.12" Hg
Pressure
1019.92 hPa
Previous

2 hours ago

GMFO 162230Z 20009KT CAVOK 06/03 Q1020 NOSIG
Observed
Nov-16 @ 22:30 UTC
Wind
  • 200° at 9 KTS
Visibility
10,000+ meters
Flight Rules
VFR
Cloud Levels
  • Clear skies
Temperature
C / 43°F
Dewpoint
C / 37°F
Humidity
81%
Altimeter
30.12" Hg
Pressure
1019.92 hPa